Tecumseh, Canada
Current Conditions -  °F | °C
As of 4:00 AM on Monday 20 Oct 2014 (Local Time) from CYQG Reporting Station
Overcast Overcast  
Wind Chill: 50°   Ceiling: 8000
Heat Index: 50°   Visibility: 15mi
Dew Point: 39°   Wind: 12mph
Humidity: 66%   Direction: 220°SW
Pressure: 29.92"   Gusts: 20mph
Location:  42.32°N, 82.89°W
Report Text: CYQG 200800Z 22010G17KT 15SM OVC080 10/04 A2992 RMK AC8 SLP133
Loading
Personal Weather Stations






























Interactive Weather Map
Tropical Storm Tracking
New forecast layout! Learn more

10-Day Weather Forecast

Advertisements
Track Severe Weather on mobile